Time;durP1;ratioP1;P1;durP2;ratioP2;P2;SDS_P1;SDS_P2;PMS_P1;PMS_P2;Temp;Humidity;BMP_temperature;BMP_pressure;BME280_temperature;BME280_humidity;BME280_pressure;Samples;Min_cycle;Max_cycle;Signal;HPM_P1;HPM_P2
2022/06/05 00:00:14;;;;;;;4.95;4.63;;;23.70;62.60;;;;;;4970087;28;20062;-19
2022/06/05 00:02:52;;;;;;;4.90;4.50;;;23.70;62.60;;;;;;4965729;28;20053;-18
2022/06/05 00:05:28;;;;;;;3.65;3.35;;;23.60;62.70;;;;;;4968859;28;20045;-19
2022/06/05 00:08:07;;;;;;;4.20;3.90;;;23.60;62.60;;;;;;4969316;28;20046;-19
2022/06/05 00:10:53;;;;;;;3.85;3.55;;;23.70;62.70;;;;;;4970567;28;20039;-18
2022/06/05 00:13:37;;;;;;;4.00;3.70;;;23.60;62.60;;;;;;4963668;28;20245;-18
2022/06/05 00:16:04;;;;;;;3.63;3.33;;;23.70;62.60;;;;;;4969366;28;20515;-19
2022/06/05 00:18:33;;;;;;;3.83;3.63;;;23.60;62.50;;;;;;4970656;28;20051;-18
2022/06/05 00:20:59;;;;;;;4.00;3.70;;;23.70;62.60;;;;;;4967394;28;20050;-19
2022/06/05 00:23:25;;;;;;;3.58;3.28;;;23.60;62.60;;;;;;4973083;28;20047;-17
2022/06/05 00:26:05;;;;;;;3.42;3.22;;;23.60;62.60;;;;;;4974203;28;20174;-18
2022/06/05 00:28:39;;;;;;;3.97;3.67;;;23.60;62.60;;;;;;4974643;28;20574;-18
2022/06/05 00:31:11;;;;;;;;;;;23.60;62.70;;;;;;4974889;28;20051;-18
2022/06/05 00:33:38;;;;;;;3.22;2.83;;;23.60;62.70;;;;;;4970986;28;19926;-17
2022/06/05 00:36:13;;;;;;;4.60;4.30;;;23.60;62.70;;;;;;4973208;28;20053;-18
2022/06/05 00:38:44;;;;;;;3.30;3.10;;;23.50;62.70;;;;;;4971498;28;20520;-18
2022/06/05 00:41:49;;;;;;;3.42;3.17;;;23.60;62.70;;;;;;4971938;28;20054;-18
2022/06/05 00:44:17;;;;;;;3.38;3.17;;;23.50;62.70;;;;;;4960237;28;20529;-18
2022/06/05 00:46:42;;;;;;;3.60;3.40;;;23.50;62.60;;;;;;4972590;28;20080;-20
2022/06/05 00:49:08;;;;;;;2.97;2.80;;;23.50;62.70;;;;;;4967443;28;20520;-17
2022/06/05 00:51:34;;;;;;;2.97;2.78;;;23.50;62.70;;;;;;4949860;28;22725;-19
2022/06/05 00:53:59;;;;;;;3.45;3.15;;;23.50;62.70;;;;;;4973699;28;20058;-18
2022/06/05 00:56:25;;;;;;;3.10;2.90;;;23.60;62.50;;;;;;4965867;28;20138;-18
2022/06/05 00:58:51;;;;;;;3.45;3.20;;;23.50;62.50;;;;;;4967673;28;20046;-18
2022/06/05 01:01:17;;;;;;;3.05;2.85;;;23.60;62.50;;;;;;4960426;28;20447;-19
2022/06/05 01:03:42;;;;;;;4.15;3.30;;;23.60;62.30;;;;;;4974020;28;20050;-19
2022/06/05 01:06:08;;;;;;;3.28;3.08;;;23.60;62.30;;;;;;4974770;28;20057;-18
2022/06/05 01:08:34;;;;;;;3.15;2.95;;;23.50;62.30;;;;;;4973428;28;20452;-18
2022/06/05 01:11:19;;;;;;;3.38;3.08;;;23.60;62.30;;;;;;4976113;28;20412;-18
2022/06/05 01:13:52;;;;;;;3.25;3.05;;;23.60;62.40;;;;;;4981257;28;20070;-18
2022/06/05 01:16:35;;;;;;;2.90;2.70;;;23.60;62.30;;;;;;4966354;28;20539;-18
2022/06/05 01:19:06;;;;;;;2.72;2.63;;;23.60;62.30;;;;;;4990780;28;20412;-18
2022/06/05 01:21:51;;;;;;;2.45;2.25;;;23.50;62.30;;;;;;4969173;28;20131;-19
2022/06/05 01:24:55;;;;;;;2.90;2.70;;;23.50;62.30;;;;;;4973137;28;20057;-18
2022/06/05 01:27:24;;;;;;;2.83;2.63;;;23.50;62.30;;;;;;4974042;28;20054;-18
2022/06/05 01:29:52;;;;;;;3.05;2.88;;;23.50;62.30;;;;;;4975985;28;20121;-17
2022/06/05 01:32:34;;;;;;;3.15;2.95;;;23.50;62.30;;;;;;4975187;28;20060;-18
2022/06/05 01:35:14;;;;;;;2.70;2.60;;;23.50;62.30;;;;;;4977380;28;20074;-17
2022/06/05 01:37:44;;;;;;;3.03;2.83;;;23.50;62.30;;;;;;4953815;28;20047;-17
2022/06/05 01:40:11;;;;;;;3.20;3.00;;;23.50;62.30;;;;;;4965243;28;20039;-18
2022/06/05 01:42:45;;;;;;;2.88;2.67;;;23.50;62.30;;;;;;4976569;28;20074;-19
2022/06/05 01:45:32;;;;;;;3.08;2.88;;;23.50;62.20;;;;;;4976358;28;20431;-20
2022/06/05 01:47:59;;;;;;;2.83;2.70;;;23.40;62.40;;;;;;4977794;28;20137;-18
2022/06/05 01:50:40;;;;;;;2.63;2.53;;;23.50;62.30;;;;;;4976418;28;20525;-18
2022/06/05 01:53:21;;;;;;;2.97;2.78;;;23.50;62.30;;;;;;4975722;28;20447;-18
2022/06/05 01:55:53;;;;;;;2.38;2.28;;;23.50;62.30;;;;;;4973416;28;20037;-18
2022/06/05 01:58:21;;;;;;;3.10;2.90;;;23.50;62.30;;;;;;4975529;28;20546;-18
2022/06/05 02:00:48;;;;;;;2.58;2.40;;;23.40;62.20;;;;;;4974564;28;20038;-18
2022/06/05 02:03:29;;;;;;;2.40;2.30;;;23.40;62.30;;;;;;4975182;28;20058;-20
2022/06/05 02:06:01;;;;;;;2.60;2.50;;;23.40;62.20;;;;;;4975423;28;20081;-18
2022/06/05 02:08:35;;;;;;;2.33;2.22;;;23.50;62.30;;;;;;4950140;28;20046;-19
2022/06/05 02:11:07;;;;;;;2.38;2.28;;;23.40;62.40;;;;;;4971669;28;20062;-17
2022/06/05 02:13:32;;;;;;;2.17;2.08;;;23.40;62.40;;;;;;4970662;28;20130;-17
2022/06/05 02:15:58;;;;;;;2.83;2.63;;;23.40;62.30;;;;;;4974880;28;20075;-19
2022/06/05 02:18:24;;;;;;;2.42;2.25;;;23.40;62.40;;;;;;4975612;28;20392;-19
2022/06/05 02:20:49;;;;;;;2.63;2.42;;;23.30;62.50;;;;;;4977349;28;20043;-20
2022/06/05 02:23:18;;;;;;;2.67;2.50;;;23.40;62.30;;;;;;4973848;28;20050;-19
2022/06/05 02:25:44;;;;;;;2.78;2.58;;;23.40;62.40;;;;;;4969976;28;20046;-17
2022/06/05 02:28:13;;;;;;;2.30;2.20;;;23.30;62.50;;;;;;4973062;28;20039;-19
2022/06/05 02:30:44;;;;;;;2.30;2.20;;;23.30;62.50;;;;;;4975887;28;20042;-18
2022/06/05 02:33:30;;;;;;;2.10;2.00;;;23.40;62.30;;;;;;4976782;28;20074;-18
2022/06/05 02:36:02;;;;;;;1.95;1.85;;;23.30;62.30;;;;;;4975879;28;20496;-18
2022/06/05 02:38:58;;;;;;;2.22;2.13;;;23.30;62.40;;;;;;4976416;28;20039;-18
2022/06/05 02:41:37;;;;;;;2.03;1.92;;;23.30;62.30;;;;;;4990746;28;20050;-17
2022/06/05 02:47:17;;;;;;;2.58;2.42;;;23.30;62.50;;;;;;4969357;28;20098;-18
2022/06/05 02:49:55;;;;;;;2.25;2.10;;;23.30;62.40;;;;;;4969032;28;20042;-19
2022/06/05 02:52:22;;;;;;;2.03;1.92;;;23.30;62.40;;;;;;4976161;28;20051;-19
2022/06/05 02:55:07;;;;;;;2.10;2.00;;;23.30;62.40;;;;;;4974454;28;20043;-17
2022/06/05 02:57:33;;;;;;;2.08;1.98;;;23.30;63.20;;;;;;4986011;28;20042;-19
2022/06/05 02:59:59;;;;;;;2.10;2.00;;;23.30;62.40;;;;;;4977516;28;20193;-18
2022/06/05 03:05:09;;;;;;;;;;;23.30;62.40;;;;;;4975473;28;20532;-18
2022/06/05 03:07:34;;;;;;;2.08;1.85;;;23.30;63.10;;;;;;4971830;28;20308;-18
2022/06/05 03:10:00;;;;;;;2.45;2.35;;;23.30;62.30;;;;;;4974798;28;20134;-20
2022/06/05 03:12:25;;;;;;;2.10;2.00;;;23.30;62.40;;;;;;4975940;28;20129;-20
2022/06/05 03:14:55;;;;;;;2.22;2.13;;;23.30;62.20;;;;;;4973807;28;20126;-21
2022/06/05 03:17:22;;;;;;;2.20;2.10;;;23.30;62.40;;;;;;4974967;28;20129;-21
2022/06/05 03:19:47;;;;;;;1.85;1.75;;;23.30;62.40;;;;;;4974383;28;20046;-22
2022/06/05 03:22:13;;;;;;;2.40;2.20;;;23.30;62.40;;;;;;4975122;28;20744;-22
2022/06/05 03:24:38;;;;;;;2.00;1.90;;;23.20;62.40;;;;;;4974680;28;20119;-22
2022/06/05 03:27:04;;;;;;;2.10;2.00;;;23.20;62.50;;;;;;4976163;28;20054;-21
2022/06/05 03:29:29;;;;;;;1.83;1.73;;;23.20;62.50;;;;;;4974475;28;20044;-21
2022/06/05 03:31:55;;;;;;;1.90;1.80;;;23.20;62.40;;;;;;4969849;28;20560;-20
2022/06/05 03:34:21;;;;;;;2.35;2.25;;;23.20;62.40;;;;;;4975508;28;20107;-22
2022/06/05 03:36:47;;;;;;;1.77;1.67;;;23.20;62.40;;;;;;4974905;28;20047;-20
2022/06/05 03:39:13;;;;;;;1.90;1.80;;;23.20;62.40;;;;;;4973071;28;20046;-22
2022/06/05 03:41:38;;;;;;;1.88;1.77;;;23.30;62.40;;;;;;4976161;28;20058;-20
2022/06/05 03:44:04;;;;;;;1.58;1.48;;;23.20;62.30;;;;;;4975907;28;20129;-22
2022/06/05 03:46:30;;;;;;;1.90;1.80;;;23.20;62.30;;;;;;4974431;28;20057;-21
2022/06/05 03:48:55;;;;;;;1.80;1.70;;;23.20;62.30;;;;;;4974357;28;20080;-22
2022/06/05 03:51:22;;;;;;;2.10;2.00;;;23.20;62.40;;;;;;4974228;28;20440;-22
2022/06/05 03:53:47;;;;;;;1.80;1.70;;;23.20;62.30;;;;;;4956192;28;20069;-23
2022/06/05 03:56:16;;;;;;;1.73;1.63;;;23.20;62.40;;;;;;4973094;28;20050;-21
2022/06/05 03:58:42;;;;;;;1.50;1.40;;;23.10;62.50;;;;;;4975392;28;20531;-20
2022/06/05 04:01:11;;;;;;;1.50;1.40;;;23.20;62.60;;;;;;4975098;28;20796;-20
2022/06/05 04:03:37;;;;;;;1.80;1.70;;;23.20;62.50;;;;;;4973790;28;20046;-19
2022/06/05 04:06:07;;;;;;;1.80;1.70;;;23.20;62.40;;;;;;4975572;28;20047;-18
2022/06/05 04:08:34;;;;;;;1.90;1.80;;;23.20;62.50;;;;;;4973470;28;20077;-19
2022/06/05 04:11:04;;;;;;;3.20;1.60;;;23.10;62.50;;;;;;4970259;28;20130;-19
2022/06/05 04:13:29;;;;;;;1.90;1.48;;;23.20;62.60;;;;;;4956622;28;20390;-19
2022/06/05 04:15:55;;;;;;;1.70;1.60;;;23.20;62.40;;;;;;4974303;28;20062;-18
2022/06/05 04:18:20;;;;;;;1.48;1.38;;;23.20;62.50;;;;;;4974074;28;20079;-19
2022/06/05 04:20:46;;;;;;;1.77;1.67;;;23.20;62.40;;;;;;4974398;28;20202;-19
2022/06/05 04:23:11;;;;;;;1.90;1.80;;;23.20;62.30;;;;;;4974620;28;20050;-21
2022/06/05 04:25:40;;;;;;;1.40;1.38;;;23.20;62.20;;;;;;4972210;28;20558;-20
2022/06/05 04:28:07;;;;;;;1.70;1.60;;;23.10;62.40;;;;;;4971965;28;20129;-20
2022/06/05 04:30:36;;;;;;;1.63;1.52;;;23.10;63.20;;;;;;4974210;28;20047;-18
2022/06/05 04:33:01;;;;;;;1.70;1.60;;;23.10;62.50;;;;;;4976004;28;20039;-21
2022/06/05 04:35:27;;;;;;;1.70;1.60;;;23.10;62.60;;;;;;4974556;28;20102;-18
2022/06/05 04:37:53;;;;;;;1.50;1.50;;;23.10;62.50;;;;;;4961420;28;20400;-18
2022/06/05 04:40:18;;;;;;;1.33;1.33;;;23.10;62.50;;;;;;4956124;28;20040;-19
2022/06/05 04:42:44;;;;;;;1.58;1.48;;;23.10;62.50;;;;;;4974989;28;20447;-18
2022/06/05 04:45:10;;;;;;;1.50;1.40;;;23.10;62.60;;;;;;4975424;28;20389;-19
2022/06/05 04:47:35;;;;;;;1.50;1.40;;;23.10;62.70;;;;;;4955070;28;20039;-20
2022/06/05 04:50:01;;;;;;;1.40;1.30;;;23.10;62.60;;;;;;4966026;28;20050;-19
2022/06/05 04:52:27;;;;;;;1.15;1.10;;;23.10;62.80;;;;;;4975052;28;20090;-18
2022/06/05 04:54:53;;;;;;;1.60;1.50;;;23.10;62.80;;;;;;4974110;28;20177;-21
2022/06/05 04:57:18;;;;;;;1.40;1.30;;;23.10;62.70;;;;;;4974664;28;20126;-20
2022/06/05 04:59:44;;;;;;;1.33;1.23;;;23.10;62.70;;;;;;4975408;28;20058;-20
2022/06/05 05:02:10;;;;;;;1.60;1.50;;;23.10;62.50;;;;;;4976740;28;20039;-18
2022/06/05 05:04:35;;;;;;;1.40;1.30;;;23.10;62.60;;;;;;4974682;28;20101;-18
2022/06/05 05:07:01;;;;;;;1.15;1.15;;;23.10;62.70;;;;;;4977627;28;20070;-18
2022/06/05 05:09:26;;;;;;;1.20;1.20;;;23.10;62.60;;;;;;4977723;28;20069;-18
2022/06/05 05:11:52;;;;;;;1.35;1.30;;;23.10;62.70;;;;;;4979440;28;20045;-18
2022/06/05 05:14:17;;;;;;;1.40;1.30;;;23.10;62.70;;;;;;4981076;28;20050;-18
2022/06/05 05:16:43;;;;;;;1.38;1.38;;;23.00;62.60;;;;;;4978483;28;20234;-19
2022/06/05 05:19:09;;;;;;;1.80;1.70;;;23.00;63.40;;;;;;4630506;28;10000078;-18
2022/06/05 05:21:34;;;;;;;3.85;2.80;;;22.80;62.50;;;;;;4975248;28;20082;-19
2022/06/05 05:24:00;;;;;;;4.55;2.30;;;22.50;62.50;;;;;;4978341;28;20058;-19
2022/06/05 05:26:27;;;;;;;3.75;2.67;;;22.20;63.00;;;;;;4976198;28;20049;-19
2022/06/05 05:28:53;;;;;;;4.90;2.50;;;22.10;63.50;;;;;;4988911;28;20046;-18
2022/06/05 05:31:23;;;;;;;6.70;2.65;;;21.90;63.80;;;;;;4974748;28;20043;-18
2022/06/05 05:33:49;;;;;;;4.60;3.00;;;21.80;64.10;;;;;;4973906;28;20081;-18
2022/06/05 05:36:17;;;;;;;6.03;2.72;;;21.70;64.40;;;;;;4975822;28;20043;-19
2022/06/05 05:42:04;;;;;;;6.20;3.08;;;21.60;64.60;;;;;;4974467;28;20057;-19
2022/06/05 05:44:13;;;;;;;6.18;3.25;;;21.30;65.60;;;;;;4969939;28;20057;-18
2022/06/05 05:46:40;;;;;;;6.35;3.55;;;21.40;65.30;;;;;;4974684;28;20047;-19
2022/06/05 05:49:05;;;;;;;3.58;2.60;;;21.30;65.50;;;;;;4974222;28;20109;-19
2022/06/05 05:51:31;;;;;;;5.63;2.90;;;21.30;65.60;;;;;;4972629;28;20759;-18
2022/06/05 05:53:57;;;;;;;3.33;2.42;;;21.30;65.80;;;;;;4974823;28;20051;-19
2022/06/05 05:56:22;;;;;;;2.55;2.33;;;21.30;65.50;;;;;;4973418;28;20100;-20
2022/06/05 05:58:48;;;;;;;7.47;2.88;;;21.20;65.60;;;;;;4973240;28;20047;-19
2022/06/05 06:01:14;;;;;;;5.85;2.90;;;21.20;66.00;;;;;;4975208;28;20046;-18
2022/06/05 06:03:40;;;;;;;5.65;2.80;;;21.10;66.20;;;;;;4974151;28;20878;-18
2022/06/05 06:06:05;;;;;;;5.43;2.75;;;21.10;66.60;;;;;;4973724;28;20051;-18
2022/06/05 06:08:31;;;;;;;7.65;4.07;;;21.10;66.50;;;;;;4974546;28;20047;-18
2022/06/05 06:10:56;;;;;;;5.57;2.92;;;21.00;66.50;;;;;;4975099;28;20047;-18
2022/06/05 06:13:22;;;;;;;5.20;2.60;;;21.00;67.10;;;;;;4966829;28;20050;-18
2022/06/05 06:15:49;;;;;;;3.28;2.50;;;21.00;66.80;;;;;;4973575;28;20519;-18
2022/06/05 06:18:15;;;;;;;4.53;3.55;;;21.00;66.90;;;;;;4974051;28;20055;-19
2022/06/05 06:20:40;;;;;;;3.13;2.80;;;20.90;67.40;;;;;;4974408;28;20050;-17
2022/06/05 06:23:06;;;;;;;4.45;2.80;;;20.80;67.50;;;;;;4974465;28;20055;-18
2022/06/05 06:25:31;;;;;;;3.35;3.10;;;20.80;67.80;;;;;;4973134;28;20054;-18
2022/06/05 06:27:57;;;;;;;3.50;3.20;;;20.90;67.60;;;;;;4972223;28;20392;-19
2022/06/05 06:30:23;;;;;;;2.92;2.60;;;20.60;68.50;;;;;;4973491;28;20046;-18
2022/06/05 06:32:48;;;;;;;3.45;3.00;;;20.60;68.70;;;;;;4969796;28;20047;-18
2022/06/05 06:35:14;;;;;;;3.95;3.00;;;20.60;68.80;;;;;;4974333;28;20043;-18
2022/06/05 06:37:39;;;;;;;3.42;3.13;;;20.50;69.20;;;;;;4973564;28;20046;-18
2022/06/05 06:40:06;;;;;;;3.45;2.65;;;20.50;69.10;;;;;;4972640;28;20074;-19
2022/06/05 06:42:31;;;;;;;2.88;2.67;;;20.50;69.30;;;;;;4972394;28;20045;-18
2022/06/05 06:44:57;;;;;;;5.90;3.50;;;20.60;69.00;;;;;;4972839;28;20055;-20
2022/06/05 06:47:22;;;;;;;4.00;3.60;;;20.50;69.40;;;;;;4972518;28;20086;-18
2022/06/05 06:49:48;;;;;;;3.17;2.97;;;20.60;69.60;;;;;;4970421;28;20049;-18
2022/06/05 06:52:14;;;;;;;4.20;3.90;;;20.50;69.90;;;;;;4963138;28;20046;-19
2022/06/05 06:54:40;;;;;;;4.10;3.78;;;20.40;70.20;;;;;;4965856;28;20102;-18
2022/06/05 06:57:06;;;;;;;4.43;4.03;;;20.50;70.30;;;;;;4970040;28;20074;-19
2022/06/05 06:59:31;;;;;;;4.80;4.10;;;20.40;70.70;;;;;;4969925;28;20073;-20
2022/06/05 07:01:57;;;;;;;4.53;4.13;;;20.40;71.00;;;;;;4970445;28;20082;-18
2022/06/05 07:04:23;;;;;;;4.75;4.35;;;20.40;70.70;;;;;;4966709;28;20051;-18
2022/06/05 07:06:48;;;;;;;4.22;3.83;;;20.40;70.70;;;;;;4970751;28;20050;-18
2022/06/05 07:09:14;;;;;;;4.45;4.13;;;20.30;71.30;;;;;;4969733;28;20046;-19
2022/06/05 07:11:43;;;;;;;5.40;4.13;;;20.30;71.30;;;;;;4969307;28;20057;-21
2022/06/05 07:14:09;;;;;;;6.53;4.20;;;20.20;71.40;;;;;;4967541;28;20051;-19
2022/06/05 07:16:35;;;;;;;3.72;3.42;;;20.20;71.30;;;;;;4968449;28;20050;-19
2022/06/05 07:19:00;;;;;;;4.35;3.95;;;20.20;71.20;;;;;;4965376;28;20057;-20
2022/06/05 07:21:26;;;;;;;4.90;4.13;;;20.30;71.00;;;;;;4968849;28;20054;-19
2022/06/05 07:23:52;;;;;;;4.50;4.18;;;20.20;71.30;;;;;;4966321;28;20138;-19
2022/06/05 07:26:19;;;;;;;4.82;3.80;;;20.20;71.30;;;;;;4965795;28;20058;-20
2022/06/05 07:28:45;;;;;;;3.65;3.08;;;20.10;71.50;;;;;;4966516;28;20054;-20
2022/06/05 07:31:11;;;;;;;6.45;3.88;;;20.20;71.50;;;;;;4970052;28;20038;-20
2022/06/05 07:33:37;;;;;;;4.35;3.95;;;20.20;71.30;;;;;;4964511;28;20577;-19
2022/06/05 07:36:05;;;;;;;3.85;3.55;;;20.20;71.10;;;;;;4966487;28;20583;-20
2022/06/05 07:38:32;;;;;;;4.32;3.50;;;20.20;71.20;;;;;;4967395;28;20047;-19
2022/06/05 07:40:58;;;;;;;4.05;3.67;;;20.30;71.00;;;;;;4969619;28;20061;-19
2022/06/05 07:43:23;;;;;;;4.18;3.63;;;20.20;71.10;;;;;;4970008;28;20520;-20
2022/06/05 07:45:49;;;;;;;3.60;3.40;;;20.20;71.30;;;;;;4968131;28;20050;-21
2022/06/05 07:48:17;;;;;;;3.70;3.33;;;20.20;71.10;;;;;;4970305;28;20050;-19
2022/06/05 07:56:10;;;;;;;4.70;4.30;;;20.20;71.90;;;;;;4969112;28;20412;-19
2022/06/05 07:58:36;;;;;;;4.05;3.85;;;20.10;71.90;;;;;;4970334;28;20516;-19
2022/06/05 08:01:01;;;;;;;2.75;2.47;;;20.10;71.90;;;;;;4968225;28;20050;-19
2022/06/05 08:03:27;;;;;;;3.05;2.80;;;20.20;71.80;;;;;;4984121;28;20042;-20
2022/06/05 08:05:52;;;;;;;2.95;2.75;;;20.30;71.30;;;;;;4967574;28;20054;-19
2022/06/05 08:08:18;;;;;;;2.40;2.30;;;20.40;70.80;;;;;;4970683;28;20052;-22
2022/06/05 08:10:44;;;;;;;2.60;2.40;;;20.50;70.40;;;;;;4971042;28;20085;-26
2022/06/05 08:13:09;;;;;;;4.30;2.03;;;20.60;70.00;;;;;;4971220;28;20047;-21
2022/06/05 08:15:35;;;;;;;2.22;2.13;;;20.70;69.90;;;;;;4969247;28;20065;-19
2022/06/05 08:18:00;;;;;;;3.60;1.90;;;20.70;69.60;;;;;;4972191;28;20053;-22
2022/06/05 08:20:26;;;;;;;2.22;2.05;;;20.70;69.40;;;;;;4970337;28;20049;-24
2022/06/05 08:22:52;;;;;;;2.63;2.33;;;20.70;69.20;;;;;;4970494;28;20039;-20
2022/06/05 08:25:19;;;;;;;2.28;1.90;;;20.80;69.10;;;;;;4969204;28;20515;-20
2022/06/05 08:27:46;;;;;;;2.20;1.95;;;20.80;69.10;;;;;;4969720;28;21844;-19
2022/06/05 08:30:11;;;;;;;1.92;1.75;;;20.90;68.90;;;;;;4966804;28;20691;-20
2022/06/05 08:32:37;;;;;;;1.92;1.83;;;20.90;68.80;;;;;;4970019;28;20427;-20
2022/06/05 08:35:03;;;;;;;1.85;1.75;;;20.90;68.70;;;;;;4970562;28;20440;-22
2022/06/05 08:43:24;;;;;;;2.13;2.03;;;21.00;68.30;;;;;;4967338;28;20491;-19
2022/06/05 08:45:54;;;;;;;2.10;2.00;;;21.00;68.20;;;;;;4955624;28;20047;-22
2022/06/05 08:48:29;;;;;;;1.88;1.77;;;21.00;68.10;;;;;;4969777;28;20057;-20
2022/06/05 08:51:19;;;;;;;1.90;1.80;;;21.00;68.10;;;;;;4971017;28;20051;-20
2022/06/05 08:53:56;;;;;;;1.70;1.60;;;21.10;68.00;;;;;;4967676;28;20043;-20
2022/06/05 08:56:31;;;;;;;2.13;1.80;;;21.00;67.90;;;;;;4967812;28;20113;-20
2022/06/05 08:59:06;;;;;;;2.10;2.00;;;21.10;67.90;;;;;;4966985;28;20043;-19
2022/06/05 09:01:34;;;;;;;2.38;2.20;;;21.10;67.80;;;;;;4974282;28;20081;-19
2022/06/05 09:04:18;;;;;;;2.20;2.00;;;21.10;67.70;;;;;;4974110;28;20054;-21
2022/06/05 09:06:45;;;;;;;;;;;21.20;67.40;;;;;;4972525;28;20097;-22
2022/06/05 09:09:25;;;;;;;2.17;1.98;;;21.20;67.30;;;;;;4972435;28;19925;-20
2022/06/05 09:12:09;;;;;;;2.28;2.08;;;21.20;67.20;;;;;;4972502;28;20042;-21
2022/06/05 09:15:00;;;;;;;2.67;2.47;;;21.20;67.10;;;;;;4986854;28;20046;-21
2022/06/05 09:17:26;;;;;;;2.65;2.45;;;21.30;67.10;;;;;;4963673;28;20042;-20
2022/06/05 09:19:51;;;;;;;3.00;2.78;;;21.30;66.90;;;;;;4973747;28;20042;-20
2022/06/05 09:22:54;;;;;;;2.45;2.35;;;21.30;66.70;;;;;;4970770;28;20401;-20
2022/06/05 09:25:40;;;;;;;2.47;2.33;;;21.40;66.60;;;;;;4935597;28;20047;-20
2022/06/05 09:28:18;;;;;;;3.13;2.92;;;21.40;66.40;;;;;;4952672;28;20429;-20
2022/06/05 09:31:22;;;;;;;3.00;2.90;;;21.40;66.40;;;;;;4953661;28;20126;-20
2022/06/05 09:33:47;;;;;;;2.90;2.70;;;21.40;66.00;;;;;;4976454;28;20047;-19
2022/06/05 09:36:17;;;;;;;2.78;2.67;;;21.50;66.00;;;;;;4957735;28;20050;-21
2022/06/05 09:38:58;;;;;;;3.60;3.40;;;21.40;65.90;;;;;;4948523;28;20083;-21
2022/06/05 09:41:49;;;;;;;3.65;3.45;;;21.50;65.70;;;;;;4948628;28;20710;-23
2022/06/05 09:44:24;;;;;;;2.72;2.53;;;21.50;65.70;;;;;;4946127;28;20063;-25
2022/06/05 09:47:00;;;;;;;3.25;2.97;;;21.50;65.50;;;;;;4950394;28;20082;-22
2022/06/05 09:49:38;;;;;;;3.00;2.90;;;21.50;65.40;;;;;;4946903;28;20055;-20
2022/06/05 09:52:17;;;;;;;3.08;2.88;;;21.60;65.30;;;;;;4945921;28;20058;-21
2022/06/05 09:55:08;;;;;;;3.10;2.90;;;21.60;65.50;;;;;;4951863;28;20043;-19
2022/06/05 10:00:41;;;;;;;2.80;2.60;;;21.60;65.30;;;;;;4951532;28;20214;-20
2022/06/05 10:03:10;;;;;;;2.88;2.65;;;21.70;65.30;;;;;;4952159;28;20134;-19
2022/06/05 10:05:39;;;;;;;4.60;3.20;;;21.70;65.00;;;;;;4949265;28;20709;-20
2022/06/05 10:08:20;;;;;;;3.42;3.13;;;21.70;65.00;;;;;;4968421;28;20267;-19
2022/06/05 10:10:47;;;;;;;3.58;3.28;;;21.70;65.00;;;;;;4953492;28;20043;-19
2022/06/05 10:13:57;;;;;;;2.95;2.75;;;21.70;64.80;;;;;;4952614;28;20134;-20
2022/06/05 10:16:50;;;;;;;4.50;3.45;;;21.80;64.80;;;;;;4944767;28;20115;-19
2022/06/05 10:19:43;;;;;;;3.40;3.20;;;21.70;64.60;;;;;;4941158;28;20058;-19
2022/06/05 10:22:40;;;;;;;4.10;3.80;;;21.70;64.60;;;;;;4953113;28;20058;-19
2022/06/05 10:25:34;;;;;;;5.20;4.82;;;21.80;64.30;;;;;;4949593;28;20054;-21
2022/06/05 10:28:09;;;;;;;6.15;5.18;;;21.80;64.00;;;;;;4970967;28;20066;-20
2022/06/05 10:30:39;;;;;;;4.93;4.63;;;21.80;64.00;;;;;;4972777;28;20062;-20
2022/06/05 10:33:17;;;;;;;5.13;4.72;;;21.90;63.80;;;;;;4971149;28;20054;-20
2022/06/05 10:36:24;;;;;;;4.32;4.05;;;21.90;63.40;;;;;;4972690;28;20050;-19
2022/06/05 10:39:00;;;;;;;4.93;4.53;;;21.90;63.30;;;;;;4971782;28;20039;-20
2022/06/05 10:41:40;;;;;;;4.63;4.32;;;21.90;63.20;;;;;;4971495;28;20047;-20
2022/06/05 10:44:24;;;;;;;3.47;3.28;;;22.00;63.20;;;;;;4974438;28;20094;-20
2022/06/05 10:47:05;;;;;;;3.67;3.47;;;22.00;62.80;;;;;;4972070;28;20067;-20
2022/06/05 10:49:49;;;;;;;2.65;2.45;;;22.00;62.50;;;;;;4972400;28;20062;-19
2022/06/05 10:52:26;;;;;;;2.90;2.70;;;22.00;62.20;;;;;;4969810;28;20046;-19
2022/06/05 10:55:14;;;;;;;2.50;2.40;;;22.00;62.00;;;;;;4966978;28;20062;-19
2022/06/05 10:57:41;;;;;;;2.58;2.47;;;22.00;61.60;;;;;;4971178;28;20047;-19
2022/06/05 11:00:24;;;;;;;2.50;2.38;;;22.00;61.30;;;;;;4969047;28;20043;-20
2022/06/05 11:03:04;;;;;;;1.88;1.77;;;22.00;61.30;;;;;;4949476;28;20054;-22
2022/06/05 11:05:44;;;;;;;1.90;1.80;;;22.00;60.60;;;;;;4967265;28;20420;-19
2022/06/05 11:08:25;;;;;;;2.25;1.83;;;22.10;60.70;;;;;;4966631;28;20058;-19
2022/06/05 11:13:56;;;;;;;1.40;1.30;;;22.10;59.90;;;;;;4971367;28;20127;-21
2022/06/05 11:16:31;;;;;;;1.80;1.70;;;22.10;59.80;;;;;;4972008;28;20125;-19
2022/06/05 11:19:23;;;;;;;1.05;1.05;;;22.10;59.40;;;;;;4969855;28;20055;-21
2022/06/05 11:21:50;;;;;;;1.38;1.30;;;22.10;59.40;;;;;;4984389;28;20054;-19
2022/06/05 11:24:29;;;;;;;1.63;1.50;;;22.20;59.40;;;;;;5061089;27;20425;-19
2022/06/05 11:26:55;;;;;;;1.55;1.45;;;22.20;59.00;;;;;;5051082;28;20132;-18
2022/06/05 11:29:22;;;;;;;1.15;1.15;;;22.20;59.10;;;;;;5048314;28;20045;-19
2022/06/05 11:31:53;;;;;;;1.30;1.20;;;22.20;58.90;;;;;;5081465;28;20039;-21
2022/06/05 11:34:33;;;;;;;1.63;1.17;;;22.20;58.60;;;;;;5050504;28;20117;-20
2022/06/05 11:37:16;;;;;;;0.90;0.90;;;22.20;58.40;;;;;;5054111;28;20033;-20
2022/06/05 11:40:03;;;;;;;0.88;0.88;;;22.20;58.70;;;;;;5052672;28;20041;-20
2022/06/05 11:42:31;;;;;;;0.80;0.80;;;22.20;58.40;;;;;;5058137;28;20658;-19
2022/06/05 11:45:03;;;;;;;0.80;0.80;;;22.20;57.80;;;;;;5052024;28;20040;-18
2022/06/05 11:47:36;;;;;;;1.20;0.80;;;22.20;58.40;;;;;;5054162;28;20180;-19
2022/06/05 11:50:12;;;;;;;1.17;1.00;;;22.20;57.70;;;;;;5051550;28;20513;-19
2022/06/05 11:53:16;;;;;;;0.70;0.70;;;22.20;57.30;;;;;;5051437;28;20044;-20
2022/06/05 11:55:58;;;;;;;0.80;0.80;;;22.20;57.20;;;;;;5032771;28;20045;-20
2022/06/05 11:58:33;;;;;;;1.10;1.10;;;22.20;56.70;;;;;;4704902;28;9999695;-19
2022/06/05 12:01:10;;;;;;;1.67;0.75;;;22.30;57.10;;;;;;5054086;28;20045;-20
2022/06/05 12:03:50;;;;;;;3.30;0.70;;;22.30;56.80;;;;;;5065134;28;20044;-18
2022/06/05 12:06:51;;;;;;;0.52;0.52;;;22.30;57.20;;;;;;5081301;28;20098;-19
2022/06/05 12:09:18;;;;;;;0.47;0.47;;;22.30;56.70;;;;;;5063338;28;20136;-18
2022/06/05 12:12:04;;;;;;;0.60;0.60;;;22.30;56.80;;;;;;5052101;28;20061;-18
2022/06/05 12:14:38;;;;;;;0.70;0.60;;;22.30;56.90;;;;;;5053890;28;20056;-19
2022/06/05 12:17:25;;;;;;;0.38;0.38;;;22.30;56.10;;;;;;5029056;28;20054;-19
2022/06/05 12:20:08;;;;;;;1.13;0.70;;;22.30;56.40;;;;;;5037459;28;20574;-19
2022/06/05 12:22:48;;;;;;;0.68;0.68;;;22.40;56.50;;;;;;5057708;28;20069;-18
2022/06/05 12:25:38;;;;;;;0.73;0.70;;;22.40;56.50;;;;;;5019039;28;20038;-17
2022/06/05 12:28:34;;;;;;;0.60;0.60;;;22.40;56.70;;;;;;5021772;28;20046;-22
2022/06/05 12:31:23;;;;;;;0.70;0.57;;;22.40;57.40;;;;;;5025450;28;20037;-19
2022/06/05 12:34:11;;;;;;;0.88;0.88;;;22.40;56.90;;;;;;5009793;28;20038;-20
2022/06/05 12:36:57;;;;;;;0.47;0.45;;;22.40;57.20;;;;;;5016572;28;20037;-20
2022/06/05 12:39:28;;;;;;;0.52;0.52;;;22.40;57.70;;;;;;5025552;28;20042;-19
2022/06/05 12:42:05;;;;;;;0.77;0.57;;;22.40;56.70;;;;;;5028386;28;20034;-20
2022/06/05 12:44:42;;;;;;;0.47;0.47;;;22.40;57.00;;;;;;5029577;28;20525;-19
2022/06/05 12:47:20;;;;;;;0.60;0.60;;;22.40;57.30;;;;;;5028946;28;20042;-19
2022/06/05 12:49:55;;;;;;;0.95;0.45;;;22.40;57.20;;;;;;5036376;28;20124;-19
2022/06/05 12:52:44;;;;;;;0.60;0.60;;;22.40;56.70;;;;;;5028420;28;20188;-18
2022/06/05 12:55:21;;;;;;;1.27;0.60;;;22.40;57.40;;;;;;5035960;28;20071;-19
2022/06/05 12:58:02;;;;;;;2.55;0.57;;;22.50;57.20;;;;;;5028683;28;20061;-18
2022/06/05 13:00:50;;;;;;;0.65;0.60;;;22.50;57.60;;;;;;5024161;28;20407;-18
2022/06/05 13:03:25;;;;;;;0.50;0.50;;;22.40;57.20;;;;;;5037282;28;20148;-18
2022/06/05 13:06:08;;;;;;;0.45;0.40;;;22.50;57.50;;;;;;5036162;28;20559;-18
2022/06/05 13:08:53;;;;;;;0.50;0.50;;;22.50;57.30;;;;;;5037558;28;20037;-20
2022/06/05 13:11:30;;;;;;;0.70;0.65;;;22.50;57.70;;;;;;5016437;28;20049;-19
2022/06/05 13:14:26;;;;;;;0.70;0.70;;;22.50;57.80;;;;;;5015471;28;20434;-19
2022/06/05 13:17:15;;;;;;;0.70;0.70;;;22.60;57.90;;;;;;4999316;28;20136;-17
2022/06/05 13:19:55;;;;;;;0.70;0.70;;;22.50;58.00;;;;;;5011218;28;20562;-21
2022/06/05 13:22:39;;;;;;;0.85;0.70;;;22.50;57.90;;;;;;5053548;28;20136;-17
2022/06/05 13:25:15;;;;;;;;;;;22.50;58.00;;;;;;5043367;28;20041;-19
2022/06/05 13:28:07;;;;;;;0.82;0.60;;;22.60;58.00;;;;;;5029039;28;19920;-18
2022/06/05 13:30:41;;;;;;;0.60;0.60;;;22.60;58.30;;;;;;5015331;28;20046;-18
2022/06/05 13:33:30;;;;;;;0.50;0.50;;;22.60;58.30;;;;;;5034434;28;20041;-19
2022/06/05 13:36:00;;;;;;;0.50;0.50;;;22.60;58.30;;;;;;5016891;28;20042;-18
2022/06/05 13:39:08;;;;;;;0.73;0.52;;;22.60;58.30;;;;;;5020038;28;20458;-18
2022/06/05 13:41:40;;;;;;;0.45;0.45;;;22.60;58.10;;;;;;5025258;28;20037;-19